sensor_id;sensor_type;location;lat;lon;timestamp;P1;durP1;ratioP1;P2;durP2;ratioP2
57343;SDS011;43180;50.974;18.172;2023-03-14T00:07:36;4.20;;;2.10;;
57343;SDS011;43180;50.974;18.172;2023-03-14T00:17:29;9.10;;;3.60;;
57343;SDS011;43180;50.974;18.172;2023-03-14T00:27:12;5.10;;;3.60;;
57343;SDS011;43180;50.974;18.172;2023-03-14T00:36:56;4.40;;;2.60;;
57343;SDS011;43180;50.974;18.172;2023-03-14T00:46:38;4.50;;;1.80;;
57343;SDS011;43180;50.974;18.172;2023-03-14T00:56:21;2.40;;;1.90;;
57343;SDS011;43180;50.974;18.172;2023-03-14T01:06:13;6.60;;;3.40;;
57343;SDS011;43180;50.974;18.172;2023-03-14T01:16:05;3.60;;;2.40;;
57343;SDS011;43180;50.974;18.172;2023-03-14T01:25:51;4.10;;;2.60;;
57343;SDS011;43180;50.974;18.172;2023-03-14T01:35:33;5.80;;;2.20;;
57343;SDS011;43180;50.974;18.172;2023-03-14T01:55:50;4.80;;;2.40;;
57343;SDS011;43180;50.974;18.172;2023-03-14T02:05:35;3.50;;;2.30;;
57343;SDS011;43180;50.974;18.172;2023-03-14T02:22:45;10.40;;;2.10;;
57343;SDS011;43180;50.974;18.172;2023-03-14T02:32:51;2.20;;;2.00;;
57343;SDS011;43180;50.974;18.172;2023-03-14T02:42:37;2.80;;;2.00;;
57343;SDS011;43180;50.974;18.172;2023-03-14T02:52:28;3.50;;;1.90;;
57343;SDS011;43180;50.974;18.172;2023-03-14T03:02:11;9.50;;;3.00;;
57343;SDS011;43180;50.974;18.172;2023-03-14T03:11:54;2.90;;;2.00;;
57343;SDS011;43180;50.974;18.172;2023-03-14T03:21:36;2.30;;;1.30;;
57343;SDS011;43180;50.974;18.172;2023-03-14T03:31:18;5.00;;;1.70;;
57343;SDS011;43180;50.974;18.172;2023-03-14T03:41:05;6.70;;;2.90;;
57343;SDS011;43180;50.974;18.172;2023-03-14T03:50:48;6.90;;;3.00;;
57343;SDS011;43180;50.974;18.172;2023-03-14T04:00:33;4.80;;;2.50;;
57343;SDS011;43180;50.974;18.172;2023-03-14T04:10:17;4.00;;;3.60;;
57343;SDS011;43180;50.974;18.172;2023-03-14T04:20:00;3.00;;;2.20;;
57343;SDS011;43180;50.974;18.172;2023-03-14T04:29:42;17.20;;;7.40;;
57343;SDS011;43180;50.974;18.172;2023-03-14T04:39:24;2.60;;;1.90;;
57343;SDS011;43180;50.974;18.172;2023-03-14T04:49:06;3.40;;;2.10;;
57343;SDS011;43180;50.974;18.172;2023-03-14T04:58:49;5.70;;;3.10;;
57343;SDS011;43180;50.974;18.172;2023-03-14T05:08:31;1.30;;;1.20;;
57343;SDS011;43180;50.974;18.172;2023-03-14T05:13:22;9.00;;;4.00;;
57343;SDS011;43180;50.974;18.172;2023-03-14T05:23:09;1.90;;;1.50;;
57343;SDS011;43180;50.974;18.172;2023-03-14T05:32:53;4.00;;;2.20;;
57343;SDS011;43180;50.974;18.172;2023-03-14T05:42:36;5.10;;;1.80;;
57343;SDS011;43180;50.974;18.172;2023-03-14T05:52:19;5.80;;;2.90;;
57343;SDS011;43180;50.974;18.172;2023-03-14T06:02:01;6.20;;;2.50;;
57343;SDS011;43180;50.974;18.172;2023-03-14T06:11:45;7.30;;;2.10;;
57343;SDS011;43180;50.974;18.172;2023-03-14T06:21:28;9.30;;;3.40;;
57343;SDS011;43180;50.974;18.172;2023-03-14T06:31:10;7.30;;;3.70;;
57343;SDS011;43180;50.974;18.172;2023-03-14T06:36:02;9.30;;;4.70;;
57343;SDS011;43180;50.974;18.172;2023-03-14T06:45:44;10.20;;;3.10;;
57343;SDS011;43180;50.974;18.172;2023-03-14T06:55:26;2.40;;;1.90;;
57343;SDS011;43180;50.974;18.172;2023-03-14T07:05:09;4.20;;;2.00;;
57343;SDS011;43180;50.974;18.172;2023-03-14T07:14:54;6.50;;;3.00;;
57343;SDS011;43180;50.974;18.172;2023-03-14T07:24:38;4.30;;;2.90;;
57343;SDS011;43180;50.974;18.172;2023-03-14T07:34:20;12.40;;;3.00;;
57343;SDS011;43180;50.974;18.172;2023-03-14T07:44:02;5.40;;;2.00;;
57343;SDS011;43180;50.974;18.172;2023-03-14T07:53:44;4.80;;;2.70;;
57343;SDS011;43180;50.974;18.172;2023-03-14T08:03:28;6.60;;;3.70;;
57343;SDS011;43180;50.974;18.172;2023-03-14T08:13:12;6.60;;;3.30;;
57343;SDS011;43180;50.974;18.172;2023-03-14T08:22:56;8.00;;;3.20;;
57343;SDS011;43180;50.974;18.172;2023-03-14T08:32:40;2.20;;;1.90;;
57343;SDS011;43180;50.974;18.172;2023-03-14T08:42:23;27.10;;;4.60;;
57343;SDS011;43180;50.974;18.172;2023-03-14T08:52:06;6.20;;;3.10;;
57343;SDS011;43180;50.974;18.172;2023-03-14T09:01:49;4.40;;;3.00;;
57343;SDS011;43180;50.974;18.172;2023-03-14T09:11:32;5.00;;;3.20;;
57343;SDS011;43180;50.974;18.172;2023-03-14T09:21:15;5.30;;;2.70;;
57343;SDS011;43180;50.974;18.172;2023-03-14T09:30:58;2.40;;;2.20;;
57343;SDS011;43180;50.974;18.172;2023-03-14T09:40:52;4.80;;;3.20;;
57343;SDS011;43180;50.974;18.172;2023-03-14T09:50:46;1.60;;;1.60;;
57343;SDS011;43180;50.974;18.172;2023-03-14T10:00:38;6.90;;;2.90;;
57343;SDS011;43180;50.974;18.172;2023-03-14T10:10:30;8.90;;;2.70;;
57343;SDS011;43180;50.974;18.172;2023-03-14T10:20:32;16.20;;;11.10;;
57343;SDS011;43180;50.974;18.172;2023-03-14T10:30:32;8.70;;;4.40;;
57343;SDS011;43180;50.974;18.172;2023-03-14T10:40:34;11.90;;;4.20;;
57343;SDS011;43180;50.974;18.172;2023-03-14T10:50:56;11.60;;;6.80;;
57343;SDS011;43180;50.974;18.172;2023-03-14T11:01:08;10.50;;;4.30;;
57343;SDS011;43180;50.974;18.172;2023-03-14T11:11:14;8.20;;;5.30;;
57343;SDS011;43180;50.974;18.172;2023-03-14T11:31:47;11.50;;;5.80;;
57343;SDS011;43180;50.974;18.172;2023-03-14T11:41:44;11.30;;;6.70;;
57343;SDS011;43180;50.974;18.172;2023-03-14T11:52:03;11.00;;;8.30;;
57343;SDS011;43180;50.974;18.172;2023-03-14T12:02:27;7.40;;;4.80;;
57343;SDS011;43180;50.974;18.172;2023-03-14T12:12:55;15.10;;;6.30;;
57343;SDS011;43180;50.974;18.172;2023-03-14T12:22:47;21.10;;;8.70;;
57343;SDS011;43180;50.974;18.172;2023-03-14T12:42:58;10.70;;;6.90;;
57343;SDS011;43180;50.974;18.172;2023-03-14T13:03:43;11.70;;;6.60;;
57343;SDS011;43180;50.974;18.172;2023-03-14T13:13:31;16.20;;;7.40;;
57343;SDS011;43180;50.974;18.172;2023-03-14T13:23:35;9.00;;;5.60;;
57343;SDS011;43180;50.974;18.172;2023-03-14T13:33:27;41.00;;;13.00;;
57343;SDS011;43180;50.974;18.172;2023-03-14T13:43:17;27.10;;;11.70;;
57343;SDS011;43180;50.974;18.172;2023-03-14T13:53:32;16.10;;;8.10;;
57343;SDS011;43180;50.974;18.172;2023-03-14T14:03:37;5.70;;;4.10;;
57343;SDS011;43180;50.974;18.172;2023-03-14T14:13:22;7.40;;;4.00;;
57343;SDS011;43180;50.974;18.172;2023-03-14T14:23:12;20.80;;;5.70;;
57343;SDS011;43180;50.974;18.172;2023-03-14T14:33:16;18.70;;;7.50;;
57343;SDS011;43180;50.974;18.172;2023-03-14T14:43:11;22.20;;;7.00;;
57343;SDS011;43180;50.974;18.172;2023-03-14T15:03:45;26.00;;;11.60;;
57343;SDS011;43180;50.974;18.172;2023-03-14T15:13:30;28.30;;;9.50;;
57343;SDS011;43180;50.974;18.172;2023-03-14T15:23:14;32.80;;;12.30;;
57343;SDS011;43180;50.974;18.172;2023-03-14T15:33:06;20.10;;;9.00;;
57343;SDS011;43180;50.974;18.172;2023-03-14T15:42:52;14.10;;;7.20;;
57343;SDS011;43180;50.974;18.172;2023-03-14T15:52:35;17.80;;;6.50;;
57343;SDS011;43180;50.974;18.172;2023-03-14T16:02:18;16.50;;;9.10;;
57343;SDS011;43180;50.974;18.172;2023-03-14T16:12:01;31.00;;;13.20;;
57343;SDS011;43180;50.974;18.172;2023-03-14T16:21:44;29.70;;;10.50;;
57343;SDS011;43180;50.974;18.172;2023-03-14T16:26:35;31.30;;;13.50;;
57343;SDS011;43180;50.974;18.172;2023-03-14T16:36:18;34.40;;;10.00;;
57343;SDS011;43180;50.974;18.172;2023-03-14T16:46:03;32.90;;;11.10;;
57343;SDS011;43180;50.974;18.172;2023-03-14T16:55:48;37.60;;;15.70;;
57343;SDS011;43180;50.974;18.172;2023-03-14T17:05:31;47.70;;;20.60;;
57343;SDS011;43180;50.974;18.172;2023-03-14T17:15:14;12.70;;;6.30;;
57343;SDS011;43180;50.974;18.172;2023-03-14T17:24:59;16.60;;;5.70;;
57343;SDS011;43180;50.974;18.172;2023-03-14T17:39:34;26.90;;;13.60;;
57343;SDS011;43180;50.974;18.172;2023-03-14T17:49:17;10.80;;;7.20;;
57343;SDS011;43180;50.974;18.172;2023-03-14T17:58:59;21.00;;;8.20;;
57343;SDS011;43180;50.974;18.172;2023-03-14T18:08:47;22.00;;;12.70;;
57343;SDS011;43180;50.974;18.172;2023-03-14T18:18:31;40.10;;;14.20;;
57343;SDS011;43180;50.974;18.172;2023-03-14T18:28:15;30.80;;;9.90;;
57343;SDS011;43180;50.974;18.172;2023-03-14T18:37:58;9.90;;;4.70;;
57343;SDS011;43180;50.974;18.172;2023-03-14T18:47:41;15.50;;;8.90;;
57343;SDS011;43180;50.974;18.172;2023-03-14T18:57:24;15.40;;;6.70;;
57343;SDS011;43180;50.974;18.172;2023-03-14T19:07:12;22.70;;;11.10;;
57343;SDS011;43180;50.974;18.172;2023-03-14T19:16:56;56.20;;;18.00;;
57343;SDS011;43180;50.974;18.172;2023-03-14T19:26:41;17.70;;;8.10;;
57343;SDS011;43180;50.974;18.172;2023-03-14T19:43:46;16.20;;;7.70;;
57343;SDS011;43180;50.974;18.172;2023-03-14T19:53:29;24.30;;;8.20;;
57343;SDS011;43180;50.974;18.172;2023-03-14T20:03:13;15.50;;;9.00;;
57343;SDS011;43180;50.974;18.172;2023-03-14T20:12:57;32.20;;;13.50;;
57343;SDS011;43180;50.974;18.172;2023-03-14T20:22:41;17.90;;;9.10;;
57343;SDS011;43180;50.974;18.172;2023-03-14T20:32:27;16.60;;;9.10;;
57343;SDS011;43180;50.974;18.172;2023-03-14T20:42:14;14.30;;;6.60;;
57343;SDS011;43180;50.974;18.172;2023-03-14T20:51:59;21.10;;;8.90;;
57343;SDS011;43180;50.974;18.172;2023-03-14T21:01:41;20.10;;;7.70;;
57343;SDS011;43180;50.974;18.172;2023-03-14T21:11:24;8.20;;;3.60;;
57343;SDS011;43180;50.974;18.172;2023-03-14T21:23:32;17.90;;;5.90;;
57343;SDS011;43180;50.974;18.172;2023-03-14T21:33:16;1.60;;;1.50;;
57343;SDS011;43180;50.974;18.172;2023-03-14T21:38:08;13.40;;;4.40;;
57343;SDS011;43180;50.974;18.172;2023-03-14T21:47:52;1.50;;;1.20;;
57343;SDS011;43180;50.974;18.172;2023-03-14T21:57:46;1.40;;;1.40;;
57343;SDS011;43180;50.974;18.172;2023-03-14T22:07:37;3.20;;;1.90;;
57343;SDS011;43180;50.974;18.172;2023-03-14T22:17:26;6.00;;;1.70;;
57343;SDS011;43180;50.974;18.172;2023-03-14T22:27:08;2.00;;;1.70;;
57343;SDS011;43180;50.974;18.172;2023-03-14T22:37:00;0.60;;;0.60;;
57343;SDS011;43180;50.974;18.172;2023-03-14T22:46:44;1.80;;;1.40;;
57343;SDS011;43180;50.974;18.172;2023-03-14T22:56:27;0.50;;;0.50;;
57343;SDS011;43180;50.974;18.172;2023-03-14T23:06:11;0.80;;;0.80;;
57343;SDS011;43180;50.974;18.172;2023-03-14T23:11:04;3.90;;;2.10;;
57343;SDS011;43180;50.974;18.172;2023-03-14T23:20:54;1.80;;;1.40;;
57343;SDS011;43180;50.974;18.172;2023-03-14T23:31:06;1.50;;;1.40;;
57343;SDS011;43180;50.974;18.172;2023-03-14T23:40:50;2.80;;;1.20;;
57343;SDS011;43180;50.974;18.172;2023-03-14T23:50:38;1.40;;;1.30;;
